createdAt,value
2023-04-17T00:00:02.281Z,1008.02
2023-04-17T00:01:02.327Z,1008.08
2023-04-17T00:02:02.333Z,1008.06
2023-04-17T00:03:02.375Z,1008.04
2023-04-17T00:04:02.435Z,1008.08
2023-04-17T00:05:02.301Z,1008.04
2023-04-17T00:06:02.209Z,1008.07
2023-04-17T00:07:02.225Z,1008.06
2023-04-17T00:08:02.242Z,1008.10
2023-04-17T00:09:02.265Z,1008.09
2023-04-17T00:10:02.160Z,1008.10
2023-04-17T00:11:08.119Z,1008.05
2023-04-17T00:12:03.122Z,1008.03
2023-04-17T00:13:02.120Z,1008.06
2023-04-17T00:14:02.205Z,1008.04
2023-04-17T00:15:02.138Z,1008.02
2023-04-17T00:16:02.177Z,1008.02
2023-04-17T00:17:02.148Z,1007.98
2023-04-17T00:18:02.139Z,1008.04
2023-04-17T00:19:02.143Z,1007.97
2023-04-17T00:20:02.061Z,1008.01
2023-04-17T00:21:02.066Z,1007.98
2023-04-17T00:22:02.024Z,1007.98
2023-04-17T00:23:02.106Z,1007.98
2023-04-17T00:24:02.043Z,1007.96
2023-04-17T00:25:02.029Z,1007.95
2023-04-17T00:26:02.018Z,1007.96
2023-04-17T00:27:01.993Z,1007.95
2023-04-17T00:28:02.024Z,1007.92
2023-04-17T00:29:01.988Z,1007.95
2023-04-17T00:30:02.106Z,1007.94
2023-04-17T00:31:01.945Z,1007.90
2023-04-17T00:32:02.057Z,1007.88
2023-04-17T00:33:02.045Z,1007.93
2023-04-17T00:34:01.950Z,1007.96
2023-04-17T00:35:01.923Z,1007.95
2023-04-17T00:36:02.042Z,1007.89
2023-04-17T00:37:01.879Z,1007.94
2023-04-17T00:38:01.959Z,1007.93
2023-04-17T00:39:01.891Z,1007.93
2023-04-17T00:40:01.948Z,1007.93
2023-04-17T00:41:01.855Z,1007.91
2023-04-17T00:42:01.867Z,1007.87
2023-04-17T00:43:01.853Z,1007.86
2023-04-17T00:44:01.849Z,1007.87
2023-04-17T00:45:01.860Z,1007.88
2023-04-17T00:46:01.949Z,1007.87
2023-04-17T00:47:01.816Z,1007.89
2023-04-17T00:48:01.817Z,1007.91
2023-04-17T00:49:01.797Z,1007.88
2023-04-17T00:50:01.742Z,1007.87
2023-04-17T00:51:01.816Z,1007.81
2023-04-17T00:52:01.748Z,1007.81
2023-04-17T00:53:01.699Z,1007.79
2023-04-17T00:54:01.805Z,1007.77
2023-04-17T00:55:01.695Z,1007.79
2023-04-17T00:56:01.651Z,1007.75
2023-04-17T00:57:01.715Z,1007.81
2023-04-17T00:58:01.663Z,1007.80
2023-04-17T00:59:01.618Z,1007.82
2023-04-17T01:00:01.626Z,1007.76
2023-04-17T01:01:01.618Z,1007.76
2023-04-17T01:02:01.667Z,1007.77
2023-04-17T01:03:01.841Z,1007.82
2023-04-17T01:04:01.729Z,1007.77
2023-04-17T01:05:01.589Z,1007.79
2023-04-17T01:06:01.554Z,1007.80
2023-04-17T01:07:01.601Z,1007.76
2023-04-17T01:08:01.577Z,1007.86
2023-04-17T01:09:01.518Z,1007.79
2023-04-17T01:10:01.527Z,1007.75
2023-04-17T01:11:01.553Z,1007.79
2023-04-17T01:12:01.573Z,1007.78
2023-04-17T01:13:01.479Z,1007.84
2023-04-17T01:14:01.561Z,1007.79
2023-04-17T01:15:01.464Z,1007.78
2023-04-17T01:16:01.450Z,1007.81
2023-04-17T01:17:01.638Z,1007.80
2023-04-17T01:18:01.465Z,1007.74
2023-04-17T01:19:01.424Z,1007.80
2023-04-17T01:20:01.418Z,1007.80
2023-04-17T01:21:01.384Z,1007.77
2023-04-17T01:22:01.357Z,1007.78
2023-04-17T01:23:01.404Z,1007.79
2023-04-17T01:24:01.341Z,1007.81
2023-04-17T01:25:01.426Z,1007.76
2023-04-17T01:26:01.325Z,1007.80
2023-04-17T01:27:01.311Z,1007.78
2023-04-17T01:28:01.367Z,1007.81
2023-04-17T01:29:01.365Z,1007.81
2023-04-17T01:30:01.310Z,1007.79
2023-04-17T01:31:01.384Z,1007.80
2023-04-17T01:32:01.261Z,1007.76
2023-04-17T01:33:01.327Z,1007.81
2023-04-17T01:34:01.227Z,1007.78
2023-04-17T01:35:01.244Z,1007.75
2023-04-17T01:36:01.311Z,1007.81
2023-04-17T01:37:01.236Z,1007.79
2023-04-17T01:38:01.236Z,1007.74
2023-04-17T01:39:01.241Z,1007.76
2023-04-17T01:40:01.198Z,1007.75
2023-04-17T01:41:01.206Z,1007.77
2023-04-17T01:42:01.189Z,1007.78
2023-04-17T01:43:01.187Z,1007.82
2023-04-17T01:44:01.173Z,1007.79
2023-04-17T01:45:01.148Z,1007.80
2023-04-17T01:46:01.158Z,1007.82
2023-04-17T01:47:01.205Z,1007.78
2023-04-17T01:48:01.258Z,1007.78
2023-04-17T01:49:01.121Z,1007.78
2023-04-17T01:50:01.094Z,1007.78
2023-04-17T01:51:01.072Z,1007.79
2023-04-17T01:52:01.063Z,1007.78
2023-04-17T01:53:01.075Z,1007.82
2023-04-17T01:54:01.010Z,1007.84
2023-04-17T01:55:01.045Z,1007.84
2023-04-17T01:56:01.011Z,1007.80
2023-04-17T01:57:00.982Z,1007.79
2023-04-17T01:58:00.971Z,1007.81
2023-04-17T01:59:00.960Z,1007.80
2023-04-17T02:00:01.135Z,1007.80
2023-04-17T02:01:00.937Z,1007.76
2023-04-17T02:02:01.062Z,1007.80
2023-04-17T02:03:01.168Z,1007.80
2023-04-17T02:04:01.017Z,1007.83
2023-04-17T02:05:00.911Z,1007.80
2023-04-17T02:06:00.996Z,1007.83
2023-04-17T02:07:00.871Z,1007.82
2023-04-17T02:08:00.860Z,1007.79
2023-04-17T02:09:00.895Z,1007.78
2023-04-17T02:10:00.855Z,1007.80
2023-04-17T02:11:00.838Z,1007.77
2023-04-17T02:12:00.947Z,1007.74
2023-04-17T02:13:00.830Z,1007.76
2023-04-17T02:14:00.802Z,1007.77
2023-04-17T02:15:00.828Z,1007.73
2023-04-17T02:16:00.848Z,1007.75
2023-04-17T02:17:00.763Z,1007.76
2023-04-17T02:18:00.815Z,1007.76
2023-04-17T02:19:00.745Z,1007.74
2023-04-17T02:20:00.910Z,1007.70
2023-04-17T02:21:00.723Z,1007.75
2023-04-17T02:22:00.705Z,1007.76
2023-04-17T02:23:00.707Z,1007.78
2023-04-17T02:24:00.679Z,1007.72
2023-04-17T02:25:00.690Z,1007.75
2023-04-17T02:26:00.754Z,1007.72
2023-04-17T02:27:00.698Z,1007.77
2023-04-17T02:28:00.717Z,1007.79
2023-04-17T02:29:00.735Z,1007.79
2023-04-17T02:30:00.673Z,1007.78
2023-04-17T02:31:00.665Z,1007.77
2023-04-17T02:32:00.592Z,1007.78
2023-04-17T02:33:00.709Z,1007.83
2023-04-17T02:34:00.646Z,1007.78
2023-04-17T02:35:00.577Z,1007.83
2023-04-17T02:36:00.540Z,1007.77
2023-04-17T02:37:00.562Z,1007.78
2023-04-17T02:38:00.587Z,1007.77
2023-04-17T02:39:00.523Z,1007.77
2023-04-17T02:40:00.506Z,1007.74
2023-04-17T02:41:00.577Z,1007.76
2023-04-17T02:42:00.497Z,1007.77
2023-04-17T02:43:00.506Z,1007.72
2023-04-17T02:44:00.466Z,1007.73
2023-04-17T02:45:00.499Z,1007.74
2023-04-17T02:46:00.486Z,1007.72
2023-04-17T02:47:00.676Z,1007.75
2023-04-17T02:48:00.479Z,1007.77
2023-04-17T02:49:00.487Z,1007.73
2023-04-17T02:50:00.507Z,1007.74
2023-04-17T02:51:00.437Z,1007.74
2023-04-17T02:52:00.383Z,1007.73
2023-04-17T02:53:00.449Z,1007.73
2023-04-17T02:54:00.417Z,1007.71
2023-04-17T02:55:00.360Z,1007.76
2023-04-17T02:56:00.394Z,1007.72
2023-04-17T02:57:00.325Z,1007.74
2023-04-17T02:58:00.376Z,1007.73
2023-04-17T02:59:00.362Z,1007.71
2023-04-17T03:00:00.292Z,1007.70
2023-04-17T03:01:00.459Z,1007.71
2023-04-17T03:02:00.343Z,1007.70
2023-04-17T03:03:00.491Z,1007.72
2023-04-17T03:04:00.429Z,1007.73
2023-04-17T03:05:00.262Z,1007.70
2023-04-17T03:06:00.281Z,1007.69
2023-04-17T03:07:00.222Z,1007.71
2023-04-17T03:08:00.261Z,1007.67
2023-04-17T03:09:00.231Z,1007.66
2023-04-17T03:10:00.198Z,1007.67
2023-04-17T03:11:00.170Z,1007.72
2023-04-17T03:12:00.206Z,1007.70
2023-04-17T03:13:00.167Z,1007.70
2023-04-17T03:14:00.172Z,1007.72
2023-04-17T03:15:00.151Z,1007.72
2023-04-17T03:16:00.180Z,1007.66
2023-04-17T03:17:00.141Z,1007.73
2023-04-17T03:18:00.149Z,1007.73
2023-04-17T03:19:00.125Z,1007.71
2023-04-17T03:20:00.159Z,1007.72
2023-04-17T03:21:00.112Z,1007.70
2023-04-17T03:22:00.091Z,1007.71
2023-04-17T03:23:00.183Z,1007.71
2023-04-17T03:24:00.112Z,1007.70
2023-04-17T03:25:00.025Z,1007.70
2023-04-17T03:26:00.011Z,1007.72
2023-04-17T03:27:00.037Z,1007.75
2023-04-17T03:28:00.004Z,1007.74
2023-04-17T03:28:59.978Z,1007.77
2023-04-17T03:30:00.090Z,1007.75
2023-04-17T03:30:59.958Z,1007.81
2023-04-17T03:32:00.013Z,1007.79
2023-04-17T03:33:00.012Z,1007.79
2023-04-17T03:34:00.004Z,1007.81
2023-04-17T03:34:59.953Z,1007.80
2023-04-17T03:35:59.902Z,1007.79
2023-04-17T03:36:59.964Z,1007.79
2023-04-17T03:37:59.902Z,1007.79
2023-04-17T03:38:59.890Z,1007.81
2023-04-17T03:39:59.855Z,1007.77
2023-04-17T03:40:59.844Z,1007.84
2023-04-17T03:41:59.893Z,1007.80
2023-04-17T03:42:59.819Z,1007.83
2023-04-17T03:43:59.844Z,1007.79
2023-04-17T03:44:59.809Z,1007.82
2023-04-17T03:45:59.862Z,1007.87
2023-04-17T03:46:59.814Z,1007.82
2023-04-17T03:47:59.891Z,1007.82
2023-04-17T03:48:59.782Z,1007.82
2023-04-17T03:49:59.773Z,1007.78
2023-04-17T03:50:59.758Z,1007.81
2023-04-17T03:51:59.759Z,1007.86
2023-04-17T03:52:59.862Z,1007.81
2023-04-17T03:53:59.707Z,1007.80
2023-04-17T03:54:59.700Z,1007.81
2023-04-17T03:55:59.804Z,1007.80
2023-04-17T03:56:59.758Z,1007.82
2023-04-17T03:57:59.657Z,1007.79
2023-04-17T03:58:59.687Z,1007.81
2023-04-17T03:59:59.688Z,1007.81
2023-04-17T04:00:59.614Z,1007.82
2023-04-17T04:01:59.876Z,1007.81
2023-04-17T04:02:59.810Z,1007.79
2023-04-17T04:03:59.781Z,1007.82
2023-04-17T04:04:59.631Z,1007.82
2023-04-17T04:05:59.557Z,1007.82
2023-04-17T04:06:59.675Z,1007.83
2023-04-17T04:07:59.606Z,1007.81
2023-04-17T04:08:59.625Z,1007.83
2023-04-17T04:09:59.625Z,1007.81
2023-04-17T04:10:59.581Z,1007.78
2023-04-17T04:11:59.586Z,1007.84
2023-04-17T04:12:59.521Z,1007.79
2023-04-17T04:13:59.504Z,1007.79
2023-04-17T04:14:59.518Z,1007.80
2023-04-17T04:15:59.525Z,1007.76
2023-04-17T04:16:59.578Z,1007.77
2023-04-17T04:17:59.497Z,1007.74
2023-04-17T04:18:59.428Z,1007.81
2023-04-17T04:19:59.400Z,1007.76
2023-04-17T04:20:59.560Z,1007.75
2023-04-17T04:21:59.444Z,1007.78
2023-04-17T04:22:59.373Z,1007.79
2023-04-17T04:23:59.376Z,1007.80
2023-04-17T04:24:59.462Z,1007.74
2023-04-17T04:25:59.358Z,1007.76
2023-04-17T04:26:59.337Z,1007.78
2023-04-17T04:27:59.415Z,1007.80
2023-04-17T04:28:59.363Z,1007.81
2023-04-17T04:29:59.336Z,1007.82
2023-04-17T04:30:59.521Z,1007.80
2023-04-17T04:31:59.402Z,1007.82
2023-04-17T04:32:59.378Z,1007.84
2023-04-17T04:33:59.270Z,1007.88
2023-04-17T04:34:59.593Z,1007.84
2023-04-17T04:35:59.306Z,1007.83
2023-04-17T04:36:59.330Z,1007.87
2023-04-17T04:37:59.282Z,1007.86
2023-04-17T04:38:59.306Z,1007.88
2023-04-17T04:39:59.204Z,1007.88
2023-04-17T04:40:59.271Z,1007.87
2023-04-17T04:41:59.182Z,1007.88
2023-04-17T04:42:59.152Z,1007.88
2023-04-17T04:43:59.202Z,1007.89
2023-04-17T04:44:59.180Z,1007.86
2023-04-17T04:45:59.224Z,1007.89
2023-04-17T04:46:59.640Z,1007.88
2023-04-17T04:47:59.194Z,1007.94
2023-04-17T04:48:59.193Z,1007.95
2023-04-17T04:49:59.124Z,1007.93
2023-04-17T04:50:59.070Z,1007.97
2023-04-17T04:51:59.119Z,1007.96
2023-04-17T04:52:59.087Z,1007.98
2023-04-17T04:53:59.254Z,1008.01
2023-04-17T04:54:59.098Z,1007.98
2023-04-17T04:55:59.026Z,1007.96
2023-04-17T04:56:58.992Z,1007.99
2023-04-17T04:57:59.101Z,1008.00
2023-04-17T04:58:59.142Z,1008.00
2023-04-17T04:59:58.964Z,1008.02
2023-04-17T05:00:59.011Z,1008.01
2023-04-17T05:01:59.091Z,1008.00
2023-04-17T05:02:59.230Z,1007.98
2023-04-17T05:03:59.313Z,1008.05
2023-04-17T05:04:58.977Z,1008.08
2023-04-17T05:05:58.907Z,1008.02
2023-04-17T05:06:58.990Z,1008.00
2023-04-17T05:07:58.919Z,1008.05
2023-04-17T05:08:58.869Z,1008.03
2023-04-17T05:09:58.862Z,1008.04
2023-04-17T05:10:58.869Z,1008.06
2023-04-17T05:11:58.890Z,1008.08
2023-04-17T05:12:58.916Z,1008.04
2023-04-17T05:13:58.866Z,1008.09
2023-04-17T05:14:58.850Z,1008.08
2023-04-17T05:16:01.334Z,1008.15
2023-04-17T05:16:58.799Z,1008.11
2023-04-17T05:17:58.858Z,1008.11
2023-04-17T05:18:58.762Z,1008.12
2023-04-17T05:19:58.816Z,1008.14
2023-04-17T05:20:59.066Z,1008.12
2023-04-17T05:21:58.751Z,1008.14
2023-04-17T05:22:58.814Z,1008.14
2023-04-17T05:23:58.715Z,1008.14
2023-04-17T05:24:58.707Z,1008.17
2023-04-17T05:25:58.713Z,1008.21
2023-04-17T05:26:58.691Z,1008.20
2023-04-17T05:27:58.685Z,1008.20
2023-04-17T05:28:58.658Z,1008.20
2023-04-17T05:29:58.682Z,1008.17
2023-04-17T05:30:58.652Z,1008.22
2023-04-17T05:31:58.718Z,1008.24
2023-04-17T05:32:58.785Z,1008.22
2023-04-17T05:33:58.697Z,1008.26
2023-04-17T05:34:58.710Z,1008.26
2023-04-17T05:35:58.620Z,1008.25
2023-04-17T05:36:58.706Z,1008.25
2023-04-17T05:37:58.601Z,1008.22
2023-04-17T05:38:58.722Z,1008.24
2023-04-17T05:39:58.591Z,1008.23
2023-04-17T05:40:58.535Z,1008.25
2023-04-17T05:41:58.508Z,1008.28
2023-04-17T05:42:58.508Z,1008.24
2023-04-17T05:43:58.538Z,1008.26
2023-04-17T05:44:58.484Z,1008.27
2023-04-17T05:45:58.727Z,1008.30
2023-04-17T05:46:58.452Z,1008.27
2023-04-17T05:47:58.713Z,1008.27
2023-04-17T05:48:58.635Z,1008.32
2023-04-17T05:49:58.593Z,1008.28
2023-04-17T05:50:58.441Z,1008.26
2023-04-17T05:51:58.529Z,1008.33
2023-04-17T05:52:58.497Z,1008.32
2023-04-17T05:53:58.473Z,1008.33
2023-04-17T05:54:58.463Z,1008.31
2023-04-17T05:55:58.450Z,1008.27
2023-04-17T05:56:58.348Z,1008.29
2023-04-17T05:57:58.504Z,1008.26
2023-04-17T05:58:58.454Z,1008.27
2023-04-17T05:59:58.348Z,1008.26
2023-04-17T06:00:58.299Z,1008.27
2023-04-17T06:01:58.362Z,1008.28
2023-04-17T06:02:58.453Z,1008.30
2023-04-17T06:03:58.533Z,1008.30
2023-04-17T06:04:58.605Z,1008.30
2023-04-17T06:05:58.471Z,1008.33
2023-04-17T06:06:58.338Z,1008.32
2023-04-17T06:07:58.216Z,1008.31
2023-04-17T06:08:58.224Z,1008.37
2023-04-17T06:09:58.217Z,1008.33
2023-04-17T06:10:58.217Z,1008.38
2023-04-17T06:11:58.201Z,1008.36
2023-04-17T06:12:58.216Z,1008.40
2023-04-17T06:13:58.210Z,1008.41
2023-04-17T06:14:58.175Z,1008.42
2023-04-17T06:15:58.171Z,1008.42
2023-04-17T06:16:58.349Z,1008.43
2023-04-17T06:17:58.170Z,1008.45
2023-04-17T06:18:58.116Z,1008.49
2023-04-17T06:19:58.122Z,1008.46
2023-04-17T06:20:58.197Z,1008.45
2023-04-17T06:21:58.079Z,1008.48
2023-04-17T06:22:58.076Z,1008.51
2023-04-17T06:23:58.052Z,1008.55
2023-04-17T06:24:58.166Z,1008.50
2023-04-17T06:25:58.040Z,1008.53
2023-04-17T06:26:58.052Z,1008.52
2023-04-17T06:27:58.041Z,1008.54
2023-04-17T06:28:58.028Z,1008.51
2023-04-17T06:29:58.016Z,1008.47
2023-04-17T06:30:58.006Z,1008.51
2023-04-17T06:31:58.029Z,1008.54
2023-04-17T06:32:58.021Z,1008.55
2023-04-17T06:33:57.978Z,1008.52
2023-04-17T06:34:59.700Z,1008.58
2023-04-17T06:35:57.930Z,1008.56
2023-04-17T06:36:57.949Z,1008.58
2023-04-17T06:37:57.930Z,1008.57
2023-04-17T06:38:57.882Z,1008.56
2023-04-17T06:39:58.093Z,1008.61
2023-04-17T06:40:57.964Z,1008.55
2023-04-17T06:41:57.937Z,1008.60
2023-04-17T06:42:57.854Z,1008.58
2023-04-17T06:43:58.056Z,1008.54
2023-04-17T06:44:57.823Z,1008.58
2023-04-17T06:45:57.846Z,1008.60
2023-04-17T06:46:57.851Z,1008.59
2023-04-17T06:47:57.879Z,1008.60
2023-04-17T06:48:57.832Z,1008.60
2023-04-17T06:49:57.817Z,1008.60
2023-04-17T06:50:57.748Z,1008.60
2023-04-17T06:51:57.831Z,1008.66
2023-04-17T06:52:57.963Z,1008.63
2023-04-17T06:53:57.775Z,1008.66
2023-04-17T06:54:57.791Z,1008.72
2023-04-17T06:55:57.738Z,1008.74
2023-04-17T06:56:57.835Z,1008.74
2023-04-17T06:57:57.748Z,1008.72
2023-04-17T06:58:57.937Z,1008.75
2023-04-17T06:59:57.705Z,1008.74
2023-04-17T07:00:57.774Z,1008.76
2023-04-17T07:01:57.777Z,1008.73
2023-04-17T07:02:57.796Z,1008.75
2023-04-17T07:03:57.692Z,1008.74
2023-04-17T07:04:57.826Z,1008.72
2023-04-17T07:05:57.594Z,1008.75
2023-04-17T07:06:57.673Z,1008.76
2023-04-17T07:07:57.650Z,1008.74
2023-04-17T07:08:57.626Z,1008.80
2023-04-17T07:09:57.596Z,1008.80
2023-04-17T07:10:57.545Z,1008.79
2023-04-17T07:11:57.779Z,1008.82
2023-04-17T07:12:57.594Z,1008.82
2023-04-17T07:13:57.582Z,1008.85
2023-04-17T07:14:57.686Z,1008.89
2023-04-17T07:15:57.627Z,1008.83
2023-04-17T07:16:57.553Z,1008.89
2023-04-17T07:17:57.558Z,1008.87
2023-04-17T07:18:57.456Z,1008.89
2023-04-17T07:19:57.444Z,1008.89
2023-04-17T07:20:57.470Z,1008.88
2023-04-17T07:21:57.572Z,1008.93
2023-04-17T07:22:57.427Z,1008.92
2023-04-17T07:23:57.416Z,1008.90
2023-04-17T07:24:57.441Z,1008.97
2023-04-17T07:25:57.393Z,1008.97
2023-04-17T07:26:57.413Z,1008.98
2023-04-17T07:27:57.431Z,1009.01
2023-04-17T07:28:57.377Z,1008.98
2023-04-17T07:29:57.401Z,1009.00
2023-04-17T07:30:57.329Z,1008.99
2023-04-17T07:31:57.483Z,1009.08
2023-04-17T07:32:57.317Z,1009.07
2023-04-17T07:33:57.361Z,1009.04
2023-04-17T07:34:57.304Z,1009.06
2023-04-17T07:35:57.302Z,1009.04
2023-04-17T07:36:57.311Z,1009.08
2023-04-17T07:37:57.324Z,1009.07
2023-04-17T07:38:57.355Z,1009.11
2023-04-17T07:39:57.313Z,1009.12
2023-04-17T07:40:57.264Z,1009.10
2023-04-17T07:41:57.344Z,1009.10
2023-04-17T07:42:57.199Z,1009.10
2023-04-17T07:43:58.948Z,1009.12
2023-04-17T07:44:57.287Z,1009.15
2023-04-17T07:45:57.206Z,1009.14
2023-04-17T07:46:57.249Z,1009.13
2023-04-17T07:47:57.194Z,1009.09
2023-04-17T07:48:57.154Z,1009.13
2023-04-17T07:49:57.218Z,1009.16
2023-04-17T07:50:57.173Z,1009.16
2023-04-17T07:51:57.143Z,1009.13
2023-04-17T07:52:57.105Z,1009.14
2023-04-17T07:53:57.141Z,1009.18
2023-04-17T07:54:57.101Z,1009.15
2023-04-17T07:55:57.134Z,1009.18
2023-04-17T07:56:57.119Z,1009.13
2023-04-17T07:57:57.052Z,1009.17
2023-04-17T07:58:57.008Z,1009.13
2023-04-17T07:59:57.079Z,1009.07
2023-04-17T08:00:57.022Z,1009.11
2023-04-17T08:01:57.303Z,1009.14
2023-04-17T08:02:57.142Z,1009.15
2023-04-17T08:03:57.222Z,1009.15
2023-04-17T08:04:57.078Z,1009.14
2023-04-17T08:05:57.047Z,1009.22
2023-04-17T08:06:57.067Z,1009.24
2023-04-17T08:07:56.898Z,1009.24
2023-04-17T08:08:56.927Z,1009.21
2023-04-17T08:09:56.913Z,1009.22
2023-04-17T08:10:56.920Z,1009.26
2023-04-17T08:11:58.174Z,1009.21
2023-04-17T08:12:56.847Z,1009.19
2023-04-17T08:13:56.950Z,1009.23
2023-04-17T08:14:56.926Z,1009.24
2023-04-17T08:15:56.897Z,1009.19
2023-04-17T08:16:56.947Z,1009.21
2023-04-17T08:17:56.854Z,1009.27
2023-04-17T08:18:56.977Z,1009.24
2023-04-17T08:19:56.794Z,1009.22
2023-04-17T08:20:56.781Z,1009.23
2023-04-17T08:21:56.754Z,1009.25
2023-04-17T08:22:56.888Z,1009.31
2023-04-17T08:23:56.749Z,1009.31
2023-04-17T08:24:56.828Z,1009.30
2023-04-17T08:25:56.780Z,1009.30
2023-04-17T08:26:56.745Z,1009.28
2023-04-17T08:27:56.809Z,1009.27
2023-04-17T08:28:56.702Z,1009.29
2023-04-17T08:29:56.742Z,1009.29
2023-04-17T08:30:56.849Z,1009.25
2023-04-17T08:32:12.763Z,1009.33
2023-04-17T08:32:57.851Z,1009.33
2023-04-17T08:34:10.356Z,1009.31
2023-04-17T08:34:57.652Z,1009.28
2023-04-17T08:35:56.619Z,1009.27
2023-04-17T08:36:56.625Z,1009.30
2023-04-17T08:37:56.724Z,1009.29
2023-04-17T08:38:56.658Z,1009.31
2023-04-17T08:39:56.558Z,1009.37
2023-04-17T08:40:56.687Z,1009.32
2023-04-17T08:41:56.684Z,1009.35
2023-04-17T08:42:56.550Z,1009.34
2023-04-17T08:43:56.553Z,1009.38
2023-04-17T08:44:56.627Z,1009.36
2023-04-17T08:45:58.574Z,1009.34
2023-04-17T08:46:56.504Z,1009.37
2023-04-17T08:47:56.544Z,1009.41
2023-04-17T08:48:56.469Z,1009.36
2023-04-17T08:49:56.446Z,1009.35
2023-04-17T08:50:56.439Z,1009.34
2023-04-17T08:51:56.436Z,1009.38
2023-04-17T08:52:56.483Z,1009.36
2023-04-17T08:53:56.446Z,1009.41
2023-04-17T08:54:56.425Z,1009.36
2023-04-17T08:55:56.378Z,1009.32
2023-04-17T08:56:56.474Z,1009.38
2023-04-17T08:57:57.581Z,1009.36
2023-04-17T08:58:56.393Z,1009.34
2023-04-17T08:59:56.378Z,1009.33
2023-04-17T09:00:56.343Z,1009.30
2023-04-17T09:01:56.418Z,1009.31
2023-04-17T09:02:56.475Z,1009.34
2023-04-17T09:03:56.444Z,1009.28
2023-04-17T09:04:56.510Z,1009.30
2023-04-17T09:05:56.271Z,1009.29
2023-04-17T09:06:56.270Z,1009.28
2023-04-17T09:07:56.248Z,1009.27
2023-04-17T09:08:56.258Z,1009.27
2023-04-17T09:09:56.249Z,1009.24
2023-04-17T09:10:56.231Z,1009.22
2023-04-17T09:11:56.209Z,1009.23
2023-04-17T09:12:56.219Z,1009.26
2023-04-17T09:13:56.213Z,1009.24
2023-04-17T09:14:56.233Z,1009.24
2023-04-17T09:15:56.179Z,1009.21
2023-04-17T09:16:56.149Z,1009.25
2023-04-17T09:17:56.179Z,1009.26
2023-04-17T09:18:56.162Z,1009.22
2023-04-17T09:19:56.125Z,1009.24
2023-04-17T09:20:56.133Z,1009.21
2023-04-17T09:21:56.108Z,1009.21
2023-04-17T09:22:56.109Z,1009.22
2023-04-17T09:23:56.124Z,1009.21
2023-04-17T09:24:57.698Z,1009.17
2023-04-17T09:25:56.046Z,1009.17
2023-04-17T09:26:56.043Z,1009.18
2023-04-17T09:27:56.066Z,1009.20
2023-04-17T09:28:56.054Z,1009.21
2023-04-17T09:29:56.109Z,1009.15
2023-04-17T09:30:56.137Z,1009.15
2023-04-17T09:31:56.055Z,1009.19
2023-04-17T09:32:56.008Z,1009.20
2023-04-17T09:33:55.977Z,1009.19
2023-04-17T09:34:55.982Z,1009.12
2023-04-17T09:35:57.006Z,1009.16
2023-04-17T09:36:57.055Z,1009.12
2023-04-17T09:37:55.918Z,1009.14
2023-04-17T09:38:55.936Z,1009.20
2023-04-17T09:39:55.934Z,1009.15
2023-04-17T09:40:55.898Z,1009.24
2023-04-17T09:41:55.907Z,1009.18
2023-04-17T09:42:55.894Z,1009.20
2023-04-17T09:43:55.857Z,1009.22
2023-04-17T09:44:55.862Z,1009.19
2023-04-17T09:45:55.859Z,1009.22
2023-04-17T09:46:55.898Z,1009.24
2023-04-17T09:47:55.942Z,1009.21
2023-04-17T09:48:55.824Z,1009.25
2023-04-17T09:49:55.849Z,1009.25
2023-04-17T09:50:55.775Z,1009.26
2023-04-17T09:51:55.787Z,1009.18
2023-04-17T09:52:55.749Z,1009.23
2023-04-17T09:53:55.730Z,1009.18
2023-04-17T09:54:55.770Z,1009.26
2023-04-17T09:55:55.746Z,1009.20
2023-04-17T09:56:55.713Z,1009.22
2023-04-17T09:57:55.719Z,1009.23
2023-04-17T09:58:55.739Z,1009.18
2023-04-17T09:59:55.670Z,1009.25
2023-04-17T10:00:55.686Z,1009.20
2023-04-17T10:01:55.809Z,1009.16
2023-04-17T10:02:55.907Z,1009.17
2023-04-17T10:03:55.991Z,1009.23
2023-04-17T10:04:55.608Z,1009.23
2023-04-17T10:05:55.658Z,1009.18
2023-04-17T10:06:55.693Z,1009.16
2023-04-17T10:07:55.614Z,1009.20
2023-04-17T10:08:55.597Z,1009.18
2023-04-17T10:09:55.587Z,1009.17
2023-04-17T10:10:55.596Z,1009.24
2023-04-17T10:11:55.580Z,1009.22
2023-04-17T10:12:55.525Z,1009.20
2023-04-17T10:13:55.530Z,1009.14
2023-04-17T10:14:55.513Z,1009.19
2023-04-17T10:15:55.511Z,1009.09
2023-04-17T10:16:55.581Z,1009.15
2023-04-17T10:17:55.592Z,1009.13
2023-04-17T10:18:55.483Z,1009.14
2023-04-17T10:19:55.519Z,1009.15
2023-04-17T10:20:55.527Z,1009.07
2023-04-17T10:21:55.424Z,1009.06
2023-04-17T10:22:55.423Z,1009.09
2023-04-17T10:23:55.473Z,1008.98
2023-04-17T10:24:55.419Z,1008.95
2023-04-17T10:25:55.424Z,1008.98
2023-04-17T10:26:55.372Z,1009.03
2023-04-17T10:27:55.384Z,1009.05
2023-04-17T10:28:55.394Z,1009.06
2023-04-17T10:29:55.468Z,1009.05
2023-04-17T10:30:55.622Z,1009.00
2023-04-17T10:31:55.412Z,1008.92
2023-04-17T10:32:55.473Z,1008.92
2023-04-17T10:33:55.345Z,1008.91
2023-04-17T10:34:55.348Z,1008.87
2023-04-17T10:35:55.324Z,1008.95
2023-04-17T10:36:55.433Z,1008.92
2023-04-17T10:37:55.290Z,1008.96
2023-04-17T10:38:55.349Z,1008.94
2023-04-17T10:39:55.268Z,1008.92
2023-04-17T10:40:55.255Z,1008.87
2023-04-17T10:41:55.277Z,1008.87
2023-04-17T10:42:55.200Z,1008.92
2023-04-17T10:43:55.187Z,1008.93
2023-04-17T10:44:55.178Z,1008.87
2023-04-17T10:45:55.361Z,1008.90
2023-04-17T10:46:55.154Z,1008.90
2023-04-17T10:47:55.265Z,1008.94
2023-04-17T10:48:55.200Z,1008.83
2023-04-17T10:49:55.138Z,1008.81
2023-04-17T10:50:55.231Z,1008.88
2023-04-17T10:51:55.097Z,1008.81
2023-04-17T10:52:55.124Z,1008.81
2023-04-17T10:53:55.072Z,1008.75
2023-04-17T10:54:55.133Z,1008.90
2023-04-17T10:55:55.087Z,1008.86
2023-04-17T10:56:55.102Z,1008.85
2023-04-17T10:57:55.123Z,1008.84
2023-04-17T10:58:55.032Z,1008.85
2023-04-17T10:59:55.031Z,1008.80
2023-04-17T11:00:55.038Z,1008.78
2023-04-17T11:01:55.104Z,1008.79
2023-04-17T11:02:55.152Z,1008.78
2023-04-17T11:03:55.121Z,1008.80
2023-04-17T11:04:55.066Z,1008.82
2023-04-17T11:05:55.033Z,1008.71
2023-04-17T11:06:54.997Z,1008.70
2023-04-17T11:07:54.926Z,1008.66
2023-04-17T11:08:56.786Z,1008.68
2023-04-17T11:09:54.953Z,1008.71
2023-04-17T11:10:54.895Z,1008.70
2023-04-17T11:11:54.921Z,1008.66
2023-04-17T11:12:54.870Z,1008.67
2023-04-17T11:13:54.905Z,1008.60
2023-04-17T11:14:54.935Z,1008.67
2023-04-17T11:16:02.438Z,1008.67
2023-04-17T11:16:54.863Z,1008.71
2023-04-17T11:17:54.900Z,1008.76
2023-04-17T11:18:54.817Z,1008.79
2023-04-17T11:19:54.827Z,1008.78
2023-04-17T11:20:54.824Z,1008.76
2023-04-17T11:21:54.794Z,1008.74
2023-04-17T11:22:54.765Z,1008.75
2023-04-17T11:23:54.766Z,1008.77
2023-04-17T11:24:54.738Z,1008.71
2023-04-17T11:25:54.746Z,1008.65
2023-04-17T11:26:54.713Z,1008.69
2023-04-17T11:27:54.723Z,1008.67
2023-04-17T11:28:54.698Z,1008.65
2023-04-17T11:29:54.687Z,1008.61
2023-04-17T11:30:54.698Z,1008.68
2023-04-17T11:31:54.754Z,1008.66
2023-04-17T11:32:54.696Z,1008.62
2023-04-17T11:33:54.638Z,1008.58
2023-04-17T11:34:54.623Z,1008.57
2023-04-17T11:35:54.642Z,1008.59
2023-04-17T11:36:54.609Z,1008.59
2023-04-17T11:37:54.643Z,1008.66
2023-04-17T11:38:55.444Z,1008.67
2023-04-17T11:39:54.591Z,1008.71
2023-04-17T11:40:54.566Z,1008.67
2023-04-17T11:41:54.552Z,1008.66
2023-04-17T11:42:54.542Z,1008.60
2023-04-17T11:43:54.569Z,1008.57
2023-04-17T11:44:54.517Z,1008.55
2023-04-17T11:45:54.600Z,1008.58
2023-04-17T11:46:54.529Z,1008.56
2023-04-17T11:47:54.527Z,1008.55
2023-04-17T11:48:54.489Z,1008.54
2023-04-17T11:49:54.486Z,1008.54
2023-04-17T11:50:54.451Z,1008.53
2023-04-17T11:51:54.470Z,1008.51
2023-04-17T11:52:54.466Z,1008.53
2023-04-17T11:53:54.456Z,1008.51
2023-04-17T11:54:54.411Z,1008.55
2023-04-17T11:55:54.416Z,1008.54
2023-04-17T11:56:54.412Z,1008.51
2023-04-17T11:57:54.378Z,1008.48
2023-04-17T11:58:54.366Z,1008.51
2023-04-17T11:59:54.353Z,1008.51
2023-04-17T12:00:54.363Z,1008.56
2023-04-17T12:01:54.384Z,1008.62
2023-04-17T12:02:54.428Z,1008.62
2023-04-17T12:03:54.559Z,1008.56
2023-04-17T12:04:54.415Z,1008.60